createdAt,value
2023-05-25T00:02:06.381Z,10.67
2023-05-25T00:04:34.783Z,10.63
2023-05-25T00:07:02.751Z,10.62
2023-05-25T00:09:31.720Z,10.64
2023-05-25T00:11:59.850Z,10.62
2023-05-25T00:14:27.516Z,10.62
2023-05-25T00:16:55.346Z,10.61
2023-05-25T00:19:23.250Z,10.60
2023-05-25T00:21:51.235Z,10.56
2023-05-25T00:24:18.884Z,10.50
2023-05-25T00:26:48.060Z,10.49
2023-05-25T00:29:15.821Z,10.51
2023-05-25T00:31:43.466Z,10.48
2023-05-25T00:34:11.162Z,10.48
2023-05-25T00:36:38.791Z,10.49
2023-05-25T00:39:06.445Z,10.51
2023-05-25T00:41:34.885Z,10.52
2023-05-25T00:44:04.077Z,10.50
2023-05-25T00:46:34.327Z,10.50
2023-05-25T00:49:02.090Z,10.49
2023-05-25T00:51:32.972Z,10.47
2023-05-25T00:54:00.638Z,10.44
2023-05-25T00:56:31.822Z,10.42
2023-05-25T00:59:06.138Z,10.40
2023-05-25T01:01:39.977Z,10.42
2023-05-25T01:04:09.596Z,10.41
2023-05-25T01:06:38.045Z,10.37
2023-05-25T01:09:07.013Z,10.36
2023-05-25T01:11:37.442Z,10.38
2023-05-25T01:14:07.318Z,10.38
2023-05-25T01:16:35.087Z,10.34
2023-05-25T01:19:02.919Z,10.35
2023-05-25T01:21:37.983Z,10.35
2023-05-25T01:24:12.033Z,10.36
2023-05-25T01:26:43.837Z,10.36
2023-05-25T01:29:12.508Z,10.34
2023-05-25T01:31:40.510Z,10.31
2023-05-25T01:34:08.657Z,10.27
2023-05-25T01:36:37.727Z,10.22
2023-05-25T01:39:06.498Z,10.20
2023-05-25T01:41:34.180Z,10.16
2023-05-25T01:44:01.755Z,10.18
2023-05-25T01:46:35.488Z,10.22
2023-05-25T01:49:12.630Z,10.23
2023-05-25T01:51:49.198Z,10.22
2023-05-25T01:54:20.143Z,10.19
2023-05-25T01:56:49.054Z,10.14
2023-05-25T01:59:19.929Z,10.15
2023-05-25T02:01:49.210Z,10.12
2023-05-25T02:04:18.610Z,10.11
2023-05-25T02:06:50.652Z,10.07
2023-05-25T02:09:18.324Z,10.02
2023-05-25T02:11:46.067Z,9.92
2023-05-25T02:14:13.707Z,9.89
2023-05-25T02:16:41.320Z,9.85
2023-05-25T02:19:08.892Z,9.80
2023-05-25T02:21:37.675Z,9.80
2023-05-25T02:24:09.451Z,9.79
2023-05-25T02:26:37.131Z,9.73
2023-05-25T02:29:05.420Z,9.70
2023-05-25T02:31:33.187Z,9.66
2023-05-25T02:34:00.833Z,9.63
2023-05-25T02:36:28.476Z,9.60
2023-05-25T02:38:56.077Z,9.56
2023-05-25T02:41:26.370Z,9.49
2023-05-25T02:43:54.310Z,9.39
2023-05-25T02:46:22.914Z,9.28
2023-05-25T02:48:51.572Z,9.15
2023-05-25T02:51:19.313Z,9.03
2023-05-25T02:53:46.888Z,8.85
2023-05-25T02:56:14.492Z,8.78
2023-05-25T02:58:43.577Z,8.79
2023-05-25T03:01:18.229Z,8.84
2023-05-25T03:03:47.026Z,8.89
2023-05-25T03:06:16.048Z,8.96
2023-05-25T03:08:43.656Z,9.00
2023-05-25T03:11:11.281Z,9.00
2023-05-25T03:13:38.878Z,8.99
2023-05-25T03:16:08.464Z,9.05
2023-05-25T03:18:36.128Z,9.12
2023-05-25T03:21:03.739Z,9.11
2023-05-25T03:23:31.343Z,9.17
2023-05-25T03:25:59.072Z,9.15
2023-05-25T03:28:26.689Z,9.08
2023-05-25T03:30:54.270Z,9.09
2023-05-25T03:33:23.289Z,9.05
2023-05-25T03:35:50.881Z,9.06
2023-05-25T03:38:18.499Z,9.07
2023-05-25T03:40:46.137Z,9.12
2023-05-25T03:43:13.889Z,9.13
2023-05-25T03:45:41.627Z,9.12
2023-05-25T03:48:09.310Z,9.16
2023-05-25T03:50:40.057Z,9.20
2023-05-25T03:53:08.643Z,9.22
2023-05-25T03:55:36.302Z,9.22
2023-05-25T03:58:03.914Z,9.15
2023-05-25T04:00:31.532Z,9.18
2023-05-25T04:02:59.522Z,9.25
2023-05-25T04:05:27.584Z,9.32
2023-05-25T04:07:57.573Z,9.37
2023-05-25T04:10:25.313Z,9.46
2023-05-25T04:12:56.634Z,9.55
2023-05-25T04:15:25.092Z,9.62
2023-05-25T04:17:52.748Z,9.67
2023-05-25T04:20:20.586Z,9.70
2023-05-25T04:22:48.283Z,9.73
2023-05-25T04:25:19.869Z,9.78
2023-05-25T04:27:47.658Z,9.71
2023-05-25T04:30:15.715Z,9.68
2023-05-25T04:32:45.780Z,9.64
2023-05-25T04:35:14.555Z,9.62
2023-05-25T04:37:42.255Z,9.61
2023-05-25T04:40:11.661Z,9.62
2023-05-25T04:42:40.809Z,9.58
2023-05-25T04:45:10.206Z,9.67
2023-05-25T04:47:41.063Z,9.75
2023-05-25T04:50:10.207Z,9.82
2023-05-25T04:52:37.866Z,9.91
2023-05-25T04:55:05.988Z,10.00
2023-05-25T04:57:33.610Z,10.04
2023-05-25T05:00:02.569Z,10.03
2023-05-25T05:02:30.181Z,10.09
2023-05-25T05:04:57.779Z,10.17
2023-05-25T05:07:25.594Z,10.28
2023-05-25T05:09:53.217Z,10.36
2023-05-25T05:12:20.891Z,10.45
2023-05-25T05:14:48.536Z,10.54
2023-05-25T05:17:18.539Z,10.59
2023-05-25T05:19:46.136Z,10.62
2023-05-25T05:22:15.932Z,10.69
2023-05-25T05:24:43.664Z,10.76
2023-05-25T05:27:12.191Z,10.82
2023-05-25T05:29:39.830Z,10.90
2023-05-25T05:32:07.952Z,10.98
2023-05-25T05:34:37.578Z,11.04
2023-05-25T05:37:05.436Z,11.10
2023-05-25T05:39:33.064Z,11.16
2023-05-25T05:42:01.439Z,11.22
2023-05-25T05:44:29.614Z,11.28
2023-05-25T05:47:00.293Z,11.34
2023-05-25T05:49:28.657Z,11.38
2023-05-25T05:51:57.713Z,11.43
2023-05-25T05:54:25.363Z,11.51
2023-05-25T05:56:53.405Z,11.57
2023-05-25T05:59:22.378Z,11.61
2023-05-25T06:01:50.113Z,11.67
2023-05-25T06:04:19.589Z,11.72
2023-05-25T06:06:47.306Z,11.78
2023-05-25T06:09:16.443Z,11.83
2023-05-25T06:11:44.062Z,11.87
2023-05-25T06:14:11.806Z,11.95
2023-05-25T06:16:39.481Z,11.95
2023-05-25T06:19:07.180Z,11.97
2023-05-25T06:21:34.806Z,12.01
2023-05-25T06:24:02.520Z,12.08
2023-05-25T06:26:31.841Z,12.13
2023-05-25T06:28:59.487Z,12.22
2023-05-25T06:31:27.147Z,12.31
2023-05-25T06:33:54.851Z,12.35
2023-05-25T06:36:22.668Z,12.40
2023-05-25T06:38:50.331Z,12.48
2023-05-25T06:41:19.034Z,12.52
2023-05-25T06:43:48.196Z,12.54
2023-05-25T06:46:18.328Z,12.57
2023-05-25T06:48:46.507Z,12.62
2023-05-25T06:51:14.432Z,12.65
2023-05-25T06:53:42.076Z,12.75
2023-05-25T06:56:09.671Z,12.76
2023-05-25T06:58:37.338Z,12.79
2023-05-25T07:01:07.073Z,12.88
2023-05-25T07:03:34.764Z,12.95
2023-05-25T07:06:02.398Z,12.95
2023-05-25T07:08:30.061Z,12.95
2023-05-25T07:10:57.851Z,12.91
2023-05-25T07:13:25.696Z,12.86
2023-05-25T07:15:53.641Z,12.92
2023-05-25T07:18:22.647Z,12.93
2023-05-25T07:20:51.508Z,12.92
2023-05-25T07:23:19.153Z,12.95
2023-05-25T07:25:47.010Z,13.05
2023-05-25T07:28:14.863Z,13.11
2023-05-25T07:30:42.529Z,13.12
2023-05-25T07:33:10.205Z,13.13
2023-05-25T07:35:39.284Z,13.11
2023-05-25T07:38:06.983Z,13.18
2023-05-25T07:40:34.607Z,13.23
2023-05-25T07:43:02.382Z,13.23
2023-05-25T07:45:30.037Z,13.32
2023-05-25T07:47:57.719Z,13.27
2023-05-25T07:50:25.413Z,13.33
2023-05-25T07:52:54.369Z,13.49
2023-05-25T07:55:21.996Z,13.59
2023-05-25T07:57:49.649Z,13.59
2023-05-25T08:00:18.028Z,13.73
2023-05-25T08:02:45.933Z,13.74
2023-05-25T08:05:13.965Z,13.74
2023-05-25T08:07:42.920Z,13.68
2023-05-25T08:10:12.704Z,13.71
2023-05-25T08:12:48.767Z,13.66
2023-05-25T08:15:17.744Z,13.62
2023-05-25T08:17:45.722Z,13.64
2023-05-25T08:20:13.775Z,13.64
2023-05-25T08:22:41.431Z,13.74
2023-05-25T08:25:09.485Z,13.71
2023-05-25T08:27:38.415Z,13.68
2023-05-25T08:30:07.222Z,13.75
2023-05-25T08:32:34.976Z,13.74
2023-05-25T08:35:03.363Z,13.69
2023-05-25T08:37:32.627Z,13.80
2023-05-25T08:40:02.220Z,14.04
2023-05-25T08:42:29.926Z,14.19
2023-05-25T08:44:59.057Z,14.20
2023-05-25T08:47:33.058Z,14.31
2023-05-25T08:50:01.850Z,14.35
2023-05-25T08:52:32.367Z,14.31
2023-05-25T08:55:03.884Z,14.44
2023-05-25T08:57:36.049Z,14.50
2023-05-25T09:00:10.408Z,14.62
2023-05-25T09:02:41.009Z,14.65
2023-05-25T09:05:09.570Z,14.69
2023-05-25T09:07:37.412Z,14.67
2023-05-25T09:10:06.036Z,14.70
2023-05-25T09:12:33.674Z,14.77
2023-05-25T09:15:01.448Z,14.90
2023-05-25T09:17:30.570Z,14.93
2023-05-25T09:19:58.341Z,14.84
2023-05-25T09:22:26.124Z,14.79
2023-05-25T09:24:55.086Z,14.82
2023-05-25T09:27:23.933Z,14.90
2023-05-25T09:29:52.441Z,14.90
2023-05-25T09:32:20.494Z,14.98
2023-05-25T09:34:49.507Z,15.11
2023-05-25T09:37:19.205Z,15.18
2023-05-25T09:39:47.871Z,15.11
2023-05-25T09:42:15.704Z,15.24
2023-05-25T09:44:43.663Z,15.38
2023-05-25T09:47:13.301Z,15.52
2023-05-25T09:49:41.886Z,15.68
2023-05-25T09:52:10.871Z,15.72
2023-05-25T09:54:39.177Z,15.69
2023-05-25T09:57:07.271Z,15.68
2023-05-25T09:59:34.930Z,15.80
2023-05-25T10:02:02.723Z,15.78
2023-05-25T10:04:30.627Z,15.71
2023-05-25T10:06:58.575Z,15.67
2023-05-25T10:09:29.261Z,15.65
2023-05-25T10:11:58.341Z,15.63
2023-05-25T10:14:29.723Z,15.61
2023-05-25T10:16:59.507Z,15.64
2023-05-25T10:19:33.194Z,15.82
2023-05-25T10:22:08.092Z,16.02
2023-05-25T10:24:42.113Z,16.05
2023-05-25T10:27:25.657Z,16.26
2023-05-25T10:29:56.352Z,16.39
2023-05-25T10:32:24.322Z,16.51
2023-05-25T10:34:53.741Z,16.37
2023-05-25T10:37:21.958Z,16.28
2023-05-25T10:39:51.170Z,16.32
2023-05-25T10:42:19.792Z,16.35
2023-05-25T10:44:47.739Z,16.45
2023-05-25T10:47:16.501Z,16.68
2023-05-25T10:49:54.937Z,16.68
2023-05-25T10:52:23.215Z,16.52
2023-05-25T10:54:56.981Z,16.73
2023-05-25T10:57:26.094Z,16.98
2023-05-25T10:59:59.648Z,17.00
2023-05-25T11:02:29.239Z,17.15
2023-05-25T11:05:30.641Z,17.33
2023-05-25T11:07:59.026Z,17.44
2023-05-25T11:10:54.122Z,17.39
2023-05-25T11:13:24.392Z,17.28
2023-05-25T11:16:13.807Z,17.66
2023-05-25T11:18:43.695Z,17.87
2023-05-25T11:21:16.043Z,17.97
2023-05-25T11:23:57.741Z,17.93
2023-05-25T11:26:28.193Z,17.86
2023-05-25T11:28:58.846Z,17.98
2023-05-25T11:31:31.923Z,18.36
2023-05-25T11:34:02.656Z,18.27
2023-05-25T11:36:31.598Z,18.19
2023-05-25T11:39:04.929Z,18.41
2023-05-25T11:41:38.533Z,18.77
2023-05-25T11:44:07.010Z,18.66
2023-05-25T11:46:35.621Z,18.61
2023-05-25T11:49:03.300Z,18.69
2023-05-25T11:51:35.487Z,18.53
2023-05-25T11:54:04.388Z,18.45
2023-05-25T11:56:36.022Z,18.69
2023-05-25T11:59:09.160Z,18.94
2023-05-25T12:01:38.627Z,19.12
2023-05-25T12:04:10.135Z,19.09
2023-05-25T12:06:38.650Z,18.57
2023-05-25T12:09:12.868Z,18.53
2023-05-25T12:11:45.342Z,18.82
2023-05-25T12:14:15.287Z,19.00
2023-05-25T12:16:43.574Z,19.38
2023-05-25T12:19:12.430Z,19.40
2023-05-25T12:21:43.032Z,19.56
2023-05-25T12:24:12.818Z,19.53
2023-05-25T12:26:50.605Z,19.55
2023-05-25T12:29:19.937Z,19.55
2023-05-25T12:31:47.895Z,19.73
2023-05-25T12:34:17.347Z,19.53
2023-05-25T12:36:53.474Z,19.67
2023-05-25T12:39:34.828Z,19.72
2023-05-25T12:42:14.048Z,19.92
2023-05-25T12:44:43.532Z,19.55
2023-05-25T12:47:13.321Z,19.91
2023-05-25T12:49:42.555Z,19.89
2023-05-25T12:52:11.152Z,20.06
2023-05-25T12:54:44.127Z,20.12
2023-05-25T12:57:13.283Z,20.35
2023-05-25T12:59:43.222Z,20.40
2023-05-25T13:02:11.940Z,20.39
2023-05-25T13:04:40.792Z,20.64
2023-05-25T13:07:10.012Z,20.79
2023-05-25T13:09:38.273Z,20.79
2023-05-25T13:12:07.002Z,20.94
2023-05-25T13:14:34.661Z,20.87
2023-05-25T13:17:03.580Z,21.14
2023-05-25T13:19:31.359Z,21.15
2023-05-25T13:21:58.949Z,21.33
2023-05-25T13:24:26.556Z,21.40
2023-05-25T13:26:54.890Z,21.30
2023-05-25T13:29:23.872Z,21.22
2023-05-25T13:31:51.532Z,21.03
2023-05-25T13:34:20.500Z,21.22
2023-05-25T13:36:48.651Z,21.26
2023-05-25T13:39:16.291Z,21.36
2023-05-25T13:41:43.927Z,21.26
2023-05-25T13:44:14.556Z,21.00
2023-05-25T13:46:43.537Z,20.41
2023-05-25T13:49:11.843Z,20.50
2023-05-25T13:51:41.406Z,20.91
2023-05-25T13:54:09.062Z,21.10
2023-05-25T13:56:36.769Z,21.07
2023-05-25T13:59:04.402Z,20.86
2023-05-25T14:01:33.066Z,20.60
2023-05-25T14:04:00.993Z,20.53
2023-05-25T14:06:28.912Z,20.80
2023-05-25T14:08:58.199Z,20.75
2023-05-25T14:11:28.584Z,20.68
2023-05-25T14:13:56.555Z,20.94
2023-05-25T14:16:24.259Z,20.85
2023-05-25T14:18:52.064Z,20.72
2023-05-25T14:21:19.701Z,20.85
2023-05-25T14:23:47.366Z,20.82
2023-05-25T14:26:16.353Z,20.62
2023-05-25T14:28:44.014Z,20.76
2023-05-25T14:31:12.969Z,20.94
2023-05-25T14:33:42.868Z,21.04
2023-05-25T14:36:10.770Z,21.20
2023-05-25T14:38:38.447Z,21.31
2023-05-25T14:41:06.226Z,21.36
2023-05-25T14:43:35.597Z,21.28
2023-05-25T14:46:03.189Z,21.25
2023-05-25T14:48:30.825Z,21.28
2023-05-25T14:51:00.161Z,21.32
2023-05-25T14:53:27.755Z,20.97
2023-05-25T14:55:55.341Z,21.11
2023-05-25T14:58:23.045Z,21.28
2023-05-25T15:00:51.995Z,21.39
2023-05-25T15:03:19.711Z,21.32
2023-05-25T15:05:47.550Z,21.24
2023-05-25T15:08:15.350Z,21.22
2023-05-25T15:10:42.928Z,21.26
2023-05-25T15:13:13.085Z,21.37
2023-05-25T15:15:41.768Z,21.33
2023-05-25T15:18:10.830Z,21.30
2023-05-25T15:20:38.599Z,21.40
2023-05-25T15:23:06.320Z,21.08
2023-05-25T15:25:35.631Z,20.99
2023-05-25T15:28:04.324Z,21.29
2023-05-25T15:30:33.215Z,21.28
2023-05-25T15:33:01.000Z,21.44
2023-05-25T15:35:32.364Z,21.32
2023-05-25T15:38:01.075Z,21.29
2023-05-25T15:40:29.127Z,21.40
2023-05-25T15:42:56.739Z,21.55
2023-05-25T15:45:24.968Z,21.25
2023-05-25T15:47:52.589Z,21.06
2023-05-25T15:50:20.318Z,21.04
2023-05-25T15:52:49.284Z,21.17
2023-05-25T15:55:16.926Z,21.26
2023-05-25T15:57:44.547Z,21.31
2023-05-25T16:00:13.603Z,21.37
2023-05-25T16:02:41.244Z,21.42
2023-05-25T16:05:09.723Z,21.50
2023-05-25T16:07:37.303Z,21.55
2023-05-25T16:10:07.333Z,21.52
2023-05-25T16:12:49.033Z,21.46
2023-05-25T16:15:17.451Z,21.38
2023-05-25T16:17:45.941Z,21.23
2023-05-25T16:20:14.020Z,21.20
2023-05-25T16:22:42.227Z,21.19
2023-05-25T16:25:11.703Z,21.15
2023-05-25T16:27:39.452Z,21.21
2023-05-25T16:30:08.882Z,21.23
2023-05-25T16:32:37.859Z,21.29
2023-05-25T16:35:06.155Z,21.22
2023-05-25T16:37:33.921Z,20.87
2023-05-25T16:40:01.642Z,20.82
2023-05-25T16:42:31.820Z,20.76
2023-05-25T16:44:59.426Z,20.86
2023-05-25T16:47:27.091Z,20.88
2023-05-25T16:49:54.752Z,20.75
2023-05-25T16:52:22.404Z,20.62
2023-05-25T16:54:50.046Z,20.71
2023-05-25T16:57:17.677Z,20.81
2023-05-25T16:59:46.667Z,20.84
2023-05-25T17:02:14.395Z,20.86
2023-05-25T17:04:42.034Z,20.84
2023-05-25T17:07:09.852Z,20.86
2023-05-25T17:09:37.762Z,20.86
2023-05-25T17:12:06.548Z,20.87
2023-05-25T17:14:34.239Z,20.90
2023-05-25T17:17:03.336Z,20.92
2023-05-25T17:19:31.166Z,20.92
2023-05-25T17:21:58.940Z,20.91
2023-05-25T17:24:26.691Z,20.91
2023-05-25T17:26:54.566Z,20.87
2023-05-25T17:29:22.247Z,20.71
2023-05-25T17:31:50.233Z,20.68
2023-05-25T17:34:19.479Z,20.53
2023-05-25T17:36:48.125Z,20.57
2023-05-25T17:39:15.811Z,20.58
2023-05-25T17:41:45.420Z,20.51
2023-05-25T17:44:13.128Z,20.48
2023-05-25T17:46:40.853Z,20.48
2023-05-25T17:49:08.512Z,20.46
2023-05-25T17:51:42.645Z,20.42
2023-05-25T17:57:00.915Z,20.27
2023-05-25T17:59:28.631Z,20.17
2023-05-25T18:01:56.317Z,20.18
2023-05-25T18:04:23.986Z,20.20
2023-05-25T18:06:52.944Z,20.07
2023-05-25T18:09:20.769Z,19.95
2023-05-25T18:11:48.691Z,19.79
2023-05-25T18:14:16.315Z,19.60
2023-05-25T18:16:44.823Z,19.54
2023-05-25T18:19:14.722Z,19.52
2023-05-25T18:21:42.337Z,19.43
2023-05-25T18:24:11.900Z,19.46
2023-05-25T18:26:41.588Z,19.48
2023-05-25T18:29:09.686Z,19.37
2023-05-25T18:31:37.380Z,19.33
2023-05-25T18:34:06.743Z,19.22
2023-05-25T18:36:34.364Z,19.13
2023-05-25T18:39:01.966Z,19.06
2023-05-25T18:41:31.043Z,19.04
2023-05-25T18:43:58.697Z,19.05
2023-05-25T18:46:27.717Z,19.06
2023-05-25T18:48:55.709Z,19.05
2023-05-25T18:51:25.797Z,18.98
2023-05-25T18:53:53.565Z,18.95
2023-05-25T18:56:21.372Z,18.90
2023-05-25T18:58:52.102Z,18.73
2023-05-25T19:01:19.822Z,18.71
2023-05-25T19:03:47.586Z,18.70
2023-05-25T19:06:15.246Z,18.60
2023-05-25T19:08:42.883Z,18.50
2023-05-25T19:11:10.485Z,18.44
2023-05-25T19:13:38.084Z,18.32
2023-05-25T19:16:07.290Z,18.29
2023-05-25T19:18:34.909Z,18.19
2023-05-25T19:21:02.559Z,18.15
2023-05-25T19:23:30.176Z,18.17
2023-05-25T19:25:57.821Z,18.11
2023-05-25T19:28:25.667Z,18.05
2023-05-25T19:30:53.298Z,18.03
2023-05-25T19:33:22.243Z,18.01
2023-05-25T19:35:49.833Z,18.00
2023-05-25T19:38:17.479Z,17.98
2023-05-25T19:40:45.097Z,17.97
2023-05-25T19:43:12.696Z,17.97
2023-05-25T19:45:40.409Z,17.90
2023-05-25T19:48:08.104Z,17.89
2023-05-25T19:50:37.052Z,17.84
2023-05-25T19:53:04.702Z,17.79
2023-05-25T19:55:33.620Z,17.72
2023-05-25T19:58:01.285Z,17.66
2023-05-25T20:00:28.964Z,17.63
2023-05-25T20:02:56.742Z,17.60
2023-05-25T20:05:24.467Z,17.60
2023-05-25T20:07:53.666Z,17.59
2023-05-25T20:10:21.525Z,17.52
2023-05-25T20:12:49.606Z,17.46
2023-05-25T20:15:17.610Z,17.43
2023-05-25T20:17:45.587Z,17.37
2023-05-25T20:20:13.602Z,17.37
2023-05-25T20:22:41.539Z,17.35
2023-05-25T20:25:10.855Z,17.26
2023-05-25T20:27:38.640Z,17.16
2023-05-25T20:30:07.679Z,16.95
2023-05-25T20:32:35.471Z,16.74
2023-05-25T20:35:03.459Z,16.62
2023-05-25T20:37:31.277Z,16.43
2023-05-25T20:39:59.137Z,16.31
2023-05-25T20:42:28.345Z,16.19
2023-05-25T20:44:56.173Z,16.15
2023-05-25T20:47:23.968Z,16.15
2023-05-25T20:49:51.702Z,16.03
2023-05-25T20:52:21.111Z,15.87
2023-05-25T20:54:48.826Z,15.78
2023-05-25T20:57:16.748Z,15.72
2023-05-25T20:59:46.224Z,15.69
2023-05-25T21:02:13.939Z,15.80
2023-05-25T21:04:41.593Z,15.89
2023-05-25T21:07:09.313Z,15.93
2023-05-25T21:09:36.962Z,15.97
2023-05-25T21:12:04.918Z,15.82
2023-05-25T21:14:33.534Z,15.69
2023-05-25T21:17:02.570Z,15.69
2023-05-25T21:19:30.470Z,15.71
2023-05-25T21:21:58.139Z,15.71
2023-05-25T21:24:25.859Z,15.73
2023-05-25T21:26:53.497Z,15.76
2023-05-25T21:29:21.516Z,15.81
2023-05-25T21:31:49.292Z,15.81
2023-05-25T21:34:18.406Z,15.80
2023-05-25T21:36:46.057Z,15.74
2023-05-25T21:39:13.644Z,15.58
2023-05-25T21:41:41.622Z,15.61
2023-05-25T21:44:09.238Z,15.59
2023-05-25T21:46:37.989Z,15.52
2023-05-25T21:49:05.642Z,15.41
2023-05-25T21:51:34.647Z,15.36
2023-05-25T21:54:02.385Z,15.33
2023-05-25T21:56:30.049Z,15.32
2023-05-25T21:58:57.670Z,15.22
2023-05-25T22:01:25.484Z,15.08
2023-05-25T22:03:53.185Z,14.93
2023-05-25T22:06:20.831Z,14.78
2023-05-25T22:08:49.814Z,14.80
2023-05-25T22:11:17.443Z,14.72
2023-05-25T22:13:45.065Z,14.71
2023-05-25T22:16:12.711Z,14.66
2023-05-25T22:18:40.343Z,14.58
2023-05-25T22:21:07.973Z,14.52
2023-05-25T22:23:35.895Z,14.49
2023-05-25T22:26:05.616Z,14.39
2023-05-25T22:28:33.398Z,14.30
2023-05-25T22:31:01.123Z,14.25
2023-05-25T22:33:28.779Z,14.35
2023-05-25T22:35:56.461Z,14.41
2023-05-25T22:38:24.088Z,14.32
2023-05-25T22:40:51.714Z,14.15
2023-05-25T22:43:20.682Z,14.15
2023-05-25T22:45:48.309Z,14.18
2023-05-25T22:48:15.914Z,14.13
2023-05-25T22:50:43.533Z,14.05
2023-05-25T22:53:11.189Z,14.09
2023-05-25T22:55:38.878Z,14.04
2023-05-25T22:58:06.490Z,14.04
2023-05-25T23:00:35.464Z,14.07
2023-05-25T23:03:04.525Z,13.93
2023-05-25T23:05:32.328Z,13.93
2023-05-25T23:07:59.926Z,13.92
2023-05-25T23:10:27.539Z,13.88
2023-05-25T23:12:56.227Z,13.90
2023-05-25T23:15:23.884Z,13.86
2023-05-25T23:17:52.853Z,13.79
2023-05-25T23:20:20.639Z,13.75
2023-05-25T23:22:48.769Z,13.74
2023-05-25T23:25:16.540Z,13.73
2023-05-25T23:27:44.121Z,13.75
2023-05-25T23:30:12.636Z,13.71
2023-05-25T23:32:40.313Z,13.55
2023-05-25T23:35:10.378Z,13.47
2023-05-25T23:37:38.031Z,13.51
2023-05-25T23:40:06.731Z,13.46
2023-05-25T23:42:39.198Z,13.36
2023-05-25T23:45:09.798Z,13.27
2023-05-25T23:47:37.425Z,13.21
2023-05-25T23:50:05.426Z,13.15
2023-05-25T23:52:34.462Z,13.11
2023-05-25T23:55:02.070Z,13.04
2023-05-25T23:57:29.666Z,12.96
2023-05-25T23:59:57.335Z,12.91
